Time;durP1;ratioP1;P1;durP2;ratioP2;P2;SDS_P1;SDS_P2;PMS_P1;PMS_P2;Temp;Humidity;BMP_temperature;BMP_pressure;BME280_temperature;BME280_humidity;BME280_pressure;Samples;Min_cycle;Max_cycle;Signal;HPM_P1;HPM_P2
2023/03/22 00:01:52;;;;;;;9.87;7.50;;;;;;;12.16;47.95;99522.25;10350051;28;20222;-68
2023/03/22 00:06:54;;;;;;;9.60;7.23;;;;;;;12.05;47.11;99529.03;10346620;28;20237;-68
2023/03/22 00:11:55;;;;;;;10.27;7.27;;;;;;;13.25;46.09;99491.59;10350707;28;20610;-68
2023/03/22 00:16:57;;;;;;;8.80;7.00;;;;;;;14.19;44.45;99478.72;10352677;28;20230;-68
2023/03/22 00:22:00;;;;;;;10.73;7.93;;;;;;;12.62;46.81;99547.56;10349694;28;20217;-68
2023/03/22 00:27:02;;;;;;;10.20;8.13;;;;;;;11.66;48.57;99525.13;10354531;28;20237;-68
2023/03/22 00:32:04;;;;;;;9.67;7.87;;;;;;;12.71;46.87;99484.63;10352250;28;20213;-68
2023/03/22 00:37:06;;;;;;;9.00;7.90;;;;;;;13.04;46.25;99467.66;10355498;28;20222;-68
2023/03/22 00:42:09;;;;;;;9.40;7.67;;;;;;;12.99;45.21;99488.94;10352613;28;20235;-68
2023/03/22 00:47:11;;;;;;;9.10;6.83;;;;;;;12.89;45.81;99517.06;10356615;28;20234;-68
2023/03/22 00:52:13;;;;;;;10.70;7.77;;;;;;;13.09;45.73;99511.69;10352013;28;20811;-68
2023/03/22 00:57:15;;;;;;;9.50;7.47;;;;;;;13.98;43.51;99470.94;10352660;28;20229;-68
2023/03/22 01:02:16;;;;;;;8.40;7.07;;;;;;;14.19;42.84;99464.44;10354094;28;20217;-68
2023/03/22 01:07:20;;;;;;;8.27;6.37;;;;;;;14.08;43.28;99471.31;10357301;28;20280;-68
2023/03/22 01:12:22;;;;;;;9.50;6.73;;;;;;;13.78;44.38;99504.09;10354021;28;20214;-68
2023/03/22 01:17:23;;;;;;;8.57;6.23;;;;;;;13.22;44.09;99492.03;10358702;28;20283;-68
2023/03/22 01:22:25;;;;;;;8.50;6.47;;;;;;;13.95;44.08;99471.34;10352717;28;20217;-68
2023/03/22 01:27:27;;;;;;;6.70;5.47;;;;;;;12.98;44.58;99490.00;10362955;28;20240;-68
2023/03/22 01:32:28;;;;;;;7.13;5.57;;;;;;;13.70;43.44;99472.09;10354693;28;20209;-68
2023/03/22 01:37:31;;;;;;;7.33;5.80;;;;;;;14.02;43.38;99475.69;10359452;28;20229;-68
2023/03/22 01:42:33;;;;;;;6.00;4.83;;;;;;;13.66;43.99;99473.53;10353646;28;20558;-68
2023/03/22 01:47:35;;;;;;;5.57;4.80;;;;;;;14.01;43.78;99463.25;10353290;28;20248;-68
2023/03/22 01:52:37;;;;;;;7.03;5.23;;;;;;;12.69;45.54;99484.81;10357488;28;20256;-68
2023/03/22 01:57:41;;;;;;;4.80;4.30;;;;;;;12.05;45.77;99443.22;10346658;28;20221;-68
2023/03/22 02:02:44;;;;;;;7.43;5.20;;;;;;;10.39;49.10;99352.03;10356641;28;20209;-68
2023/03/22 02:07:47;;;;;;;5.47;4.90;;;;;;;11.58;47.88;99488.56;10356021;28;20271;-68
2023/03/22 02:12:58;;;;;;;7.30;5.37;;;;;;;13.51;45.16;99430.78;10352608;28;20217;-68
2023/03/22 02:18:10;;;;;;;5.67;4.70;;;;;;;11.94;47.51;99500.09;10352812;28;20236;-68
2023/03/22 02:23:26;;;;;;;8.50;4.60;;;;;;;12.66;46.26;99469.13;10347825;28;20210;-68
2023/03/22 02:28:40;;;;;;;6.97;4.93;;;;;;;10.77;48.97;99462.28;10352846;28;20233;-68
2023/03/22 02:34:02;;;;;;;4.77;4.20;;;;;;;12.03;46.84;99468.56;10351984;28;20200;-68
2023/03/22 02:39:21;;;;;;;4.83;4.33;;;;;;;11.44;48.35;99490.34;10351769;28;20217;-68
2023/03/22 02:44:39;;;;;;;6.43;4.17;;;;;;;10.66;49.04;99455.59;10347289;28;20233;-68
2023/03/22 02:49:50;;;;;;;5.83;4.30;;;;;;;11.21;49.16;99468.38;10348943;28;20209;-68
2023/03/22 02:55:08;;;;;;;8.30;4.53;;;;;;;10.20;50.91;99455.97;10355830;28;20760;-68
2023/03/22 03:00:13;;;;;;;5.43;4.30;;;;;;;10.36;50.82;99472.78;10351255;28;20201;-68
2023/03/22 03:05:17;;;;;;;4.83;4.07;;;;;;;9.90;51.47;99426.63;10347286;28;20295;-68
2023/03/22 03:10:20;;;;;;;6.80;3.90;;;;;;;10.46;51.56;99465.25;10345308;28;20207;-68
2023/03/22 03:15:22;;;;;;;5.03;4.30;;;;;;;10.29;50.60;99473.56;10342659;28;20234;-68
2023/03/22 03:20:33;;;;;;;5.57;4.50;;;;;;;11.09;47.93;99505.56;10350484;28;20420;-68
2023/03/22 03:25:46;;;;;;;4.93;4.03;;;;;;;11.11;48.72;99518.78;10356500;28;20225;-68
2023/03/22 03:30:58;;;;;;;4.63;3.93;;;;;;;12.98;45.33;99460.47;10350110;28;20214;-68
2023/03/22 03:36:04;;;;;;;5.70;4.07;;;;;;;13.58;43.67;99471.94;10345877;28;20229;-68
2023/03/22 03:41:10;;;;;;;4.40;3.80;;;;;;;11.95;46.60;99533.94;10357687;28;20731;-68
2023/03/22 03:46:13;;;;;;;8.03;4.47;;;;;;;11.50;46.83;99510.16;10350520;28;20233;-68
2023/03/22 03:51:15;;;;;;;6.20;4.83;;;;;;;10.61;48.93;99489.28;10358994;28;20214;-68
2023/03/22 03:56:17;;;;;;;4.67;4.07;;;;;;;12.07;46.17;99518.09;10358180;28;20237;-68
2023/03/22 04:01:19;;;;;;;5.17;3.93;;;;;;;12.66;45.14;99479.03;10353120;28;20395;-68
2023/03/22 04:06:21;;;;;;;4.93;4.30;;;;;;;12.09;47.31;99521.41;10339391;28;20233;-68
2023/03/22 04:11:23;;;;;;;6.90;4.20;;;;;;;12.07;46.16;99502.84;10360488;28;20206;-68
2023/03/22 04:16:24;;;;;;;4.97;4.23;;;;;;;9.21;50.77;99344.22;10363489;28;20248;-68
2023/03/22 04:21:26;;;;;;;5.97;4.00;;;;;;;10.28;49.98;99501.31;10356597;28;21006;-68
2023/03/22 04:26:28;;;;;;;5.47;3.93;;;;;;;10.31;49.79;99500.94;10356177;28;20226;-68
2023/03/22 04:31:31;;;;;;;5.43;4.00;;;;;;;10.43;50.15;99519.16;10362261;28;20205;-68
2023/03/22 04:36:38;;;;;;;4.87;4.10;;;;;;;9.99;50.75;99491.53;10359894;28;21036;-69
2023/03/22 04:41:39;;;;;;;6.10;4.50;;;;;;;9.46;51.07;99456.91;10358308;28;20205;-68
2023/03/22 04:46:43;;;;;;;7.37;4.47;;;;;;;9.31;51.59;99445.41;10357321;28;20228;-68
2023/03/22 04:51:44;;;;;;;5.30;4.63;;;;;;;10.95;49.57;99469.00;10339424;28;20224;-68
2023/03/22 04:56:46;;;;;;;5.47;4.07;;;;;;;11.64;47.10;99462.84;10355244;28;20228;-67
2023/03/22 05:01:50;;;;;;;10.03;4.60;;;;;;;11.34;47.69;99497.06;10352859;28;20216;-68
2023/03/22 05:06:52;;;;;;;4.67;4.17;;;;;;;9.80;50.06;99502.75;10345869;28;20234;-68
2023/03/22 05:11:54;;;;;;;6.60;4.20;;;;;;;11.48;47.82;99500.69;10345686;28;20748;-68
2023/03/22 05:16:55;;;;;;;7.07;4.47;;;;;;;11.52;47.60;99496.56;10337712;28;20241;-68
2023/03/22 05:22:00;;;;;;;5.43;4.50;;;;;;;11.35;47.34;99512.13;10342100;28;20304;-68
2023/03/22 05:27:02;;;;;;;5.23;4.60;;;;;;;11.52;46.90;99513.47;10351312;28;20639;-69
2023/03/22 05:32:04;;;;;;;5.67;4.50;;;;;;;11.94;46.44;99517.00;10349681;28;20209;-68
2023/03/22 05:37:06;;;;;;;5.23;4.43;;;;;;;11.35;47.49;99549.63;10341580;28;20237;-68
2023/03/22 05:42:07;;;;;;;6.37;5.27;;;;;;;12.07;46.02;99531.50;10349389;28;20300;-68
2023/03/22 05:47:10;;;;;;;14.37;4.77;;;;;;;11.39;47.32;99562.44;10342335;28;20937;-68
2023/03/22 05:52:11;;;;;;;4.93;4.43;;;;;;;10.82;48.36;99552.72;10350428;28;20318;-68
2023/03/22 05:57:13;;;;;;;6.80;4.57;;;;;;;11.22;47.16;99547.69;10344969;28;20240;-69
2023/03/22 06:02:15;;;;;;;6.70;5.10;;;;;;;11.06;47.76;99565.69;10342625;28;20220;-69
2023/03/22 06:07:17;;;;;;;9.53;6.13;;;;;;;11.63;47.03;99552.34;10333066;28;20715;-68
2023/03/22 06:12:23;;;;;;;6.50;4.87;;;;;;;11.64;47.06;99537.88;10341243;28;20205;-68
2023/03/22 06:17:25;;;;;;;6.07;5.07;;;;;;;10.58;48.49;99553.88;10350803;28;20245;-69
2023/03/22 06:22:29;;;;;;;5.27;4.47;;;;;;;12.39;46.22;99551.44;10352215;28;20224;-69
2023/03/22 06:27:31;;;;;;;5.10;4.37;;;;;;;11.45;47.71;99568.88;10346029;28;20232;-68
2023/03/22 06:32:33;;;;;;;6.67;4.70;;;;;;;12.71;46.16;99570.53;10344675;28;20252;-68
2023/03/22 06:37:34;;;;;;;9.30;5.67;;;;;;;12.47;45.74;99551.28;10346945;28;20234;-69
2023/03/22 06:42:36;;;;;;;6.43;5.03;;;;;;;12.63;46.07;99574.22;10334837;28;20213;-69
2023/03/22 06:47:38;;;;;;;4.87;4.47;;;;;;;11.38;47.58;99555.44;10339795;28;20236;-68
2023/03/22 06:52:40;;;;;;;5.77;5.17;;;;;;;12.78;46.13;99578.59;10343989;28;20201;-69
2023/03/22 06:57:41;;;;;;;6.67;4.53;;;;;;;11.62;47.79;99569.41;10337144;28;20229;-68
2023/03/22 07:02:43;;;;;;;6.43;4.27;;;;;;;12.14;47.15;99553.81;10346285;28;20256;-68
2023/03/22 07:07:45;;;;;;;5.33;4.50;;;;;;;;;;10350939;28;20330;-68
2023/03/22 07:12:46;;;;;;;7.37;4.57;;;;;;;12.72;46.73;99573.00;10352033;28;20221;-68
2023/03/22 07:17:48;;;;;;;4.93;4.40;;;;;;;13.11;45.97;99574.09;10339660;28;20241;-68
2023/03/22 07:22:50;;;;;;;5.93;3.93;;;;;;;12.25;46.51;99557.75;10357405;28;20217;-68
2023/03/22 07:27:51;;;;;;;5.53;3.70;;;;;;;11.83;47.46;99552.44;10352052;28;20233;-68
2023/03/22 07:32:53;;;;;;;6.07;3.70;;;;;;;13.02;45.66;99561.88;10353679;28;20582;-68
2023/03/22 07:37:55;;;;;;;4.87;3.73;;;;;;;13.87;44.40;99603.38;10355479;28;20221;-68
2023/03/22 07:43:00;;;;;;;4.60;3.63;;;;;;;13.71;44.43;99592.03;10350802;28;20223;-68
2023/03/22 07:48:01;;;;;;;6.60;4.07;;;;;;;12.91;45.58;99557.94;10348409;28;20240;-68
2023/03/22 07:53:03;;;;;;;5.00;3.70;;;;;;;13.53;45.29;99563.13;10346691;28;20699;-68
2023/03/22 07:58:05;;;;;;;4.57;3.90;;;;;;;14.09;44.80;99585.13;10349434;28;20227;-68
2023/03/22 08:03:06;;;;;;;4.00;3.60;;;;;;;13.89;45.04;99566.38;10358002;28;20216;-68
2023/03/22 08:08:09;;;;;;;5.23;3.60;;;;;;;12.73;47.01;99537.06;10348396;28;20230;-68
2023/03/22 08:13:11;;;;;;;5.53;3.83;;;;;;;13.02;46.13;99518.06;10356194;28;20598;-68
2023/03/22 08:18:13;;;;;;;4.00;3.60;;;;;;;13.29;46.42;99524.28;10354289;28;20268;-68
2023/03/22 08:23:15;;;;;;;5.07;3.70;;;;;;;14.98;43.95;99551.09;10347863;28;20205;-68
2023/03/22 08:28:17;;;;;;;7.13;3.77;;;;;;;14.23;45.24;99500.63;10348861;28;20233;-68
2023/03/22 08:33:21;;;;;;;6.87;3.80;;;;;;;14.22;44.26;99498.97;10355798;28;20212;-68
2023/03/22 08:38:23;;;;;;;6.80;3.80;;;;;;;14.99;43.57;99533.91;10344584;28;20253;-68
2023/03/22 08:43:25;;;;;;;5.20;3.43;;;;;;;13.93;44.39;99482.31;10352086;28;20209;-68
2023/03/22 08:48:29;;;;;;;4.87;2.93;;;;;;;12.92;45.76;99491.63;10354544;28;20327;-68
2023/03/22 08:53:31;;;;;;;3.97;2.83;;;;;;;13.60;45.57;99506.66;10344945;28;20597;-69
2023/03/22 08:58:32;;;;;;;6.53;3.70;;;;;;;13.47;45.69;99483.34;10344668;28;20298;-69
2023/03/22 09:03:34;;;;;;;5.77;3.50;;;;;;;13.83;45.56;99466.66;10344929;28;20206;-69
2023/03/22 09:08:37;;;;;;;5.30;3.13;;;;;;;13.72;46.30;99463.81;10340359;28;20710;-69
2023/03/22 09:13:38;;;;;;;3.50;2.80;;;;;;;13.81;45.93;99446.38;10347754;28;20275;-69
2023/03/22 09:18:40;;;;;;;4.37;3.50;;;;;;;14.11;45.10;99440.47;10348834;28;20237;-68
2023/03/22 09:23:46;;;;;;;4.33;2.70;;;;;;;15.31;43.62;99475.34;10340883;28;20747;-68
2023/03/22 09:28:48;;;;;;;4.10;2.53;;;;;;;15.28;43.80;99451.53;10345271;28;20233;-68
2023/03/22 09:33:50;;;;;;;6.17;2.87;;;;;;;14.95;42.84;99398.00;10337502;28;20234;-69
2023/03/22 09:38:52;;;;;;;2.47;2.17;;;;;;;15.43;43.40;99434.19;10342629;28;20688;-68
2023/03/22 09:43:58;;;;;;;3.50;2.60;;;;;;;14.97;43.55;99387.00;10345277;28;20614;-68
2023/03/22 09:49:04;;;;;;;2.80;2.27;;;;;;;15.92;42.72;99442.31;10348732;28;20340;-68
2023/03/22 09:54:29;;;;;;;3.93;2.90;;;;;;;15.13;43.86;99410.66;10344749;28;20236;-68
2023/03/22 09:59:55;;;;;;;5.37;2.33;;;;;;;15.38;43.65;99401.69;10343743;28;20222;-68
2023/03/22 10:05:09;;;;;;;3.57;2.63;;;;;;;16.51;42.12;99410.94;10348416;28;20233;-68
2023/03/22 10:10:17;;;;;;;2.93;2.60;;;;;;;16.47;42.57;99393.56;10348882;28;20213;-69
2023/03/22 10:15:25;;;;;;;3.70;2.53;;;;;;;16.86;41.44;99328.25;10346392;28;20229;-68
2023/03/22 10:21:05;;;;;;;2.10;2.00;;;;;;;16.06;42.18;99298.88;10344919;28;20238;-68
2023/03/22 10:26:13;;;;;;;2.20;1.90;;;;;;;17.45;40.80;99352.47;10345874;28;20248;-68
2023/03/22 10:31:16;;;;;;;2.60;2.27;;;;;;;16.75;40.94;99260.50;10350659;28;20209;-68
2023/03/22 10:36:21;;;;;;;4.33;2.43;;;;;;;16.35;41.16;99247.75;10341352;28;20236;-69
2023/03/22 10:41:24;;;;;;;1.50;1.40;;;;;;;15.73;42.78;99320.16;10350216;28;20703;-69
2023/03/22 10:46:39;;;;;;;3.20;2.00;;;;;;;17.05;41.07;99250.56;10346645;28;20256;-68
2023/03/22 10:51:50;;;;;;;2.53;1.90;;;;;;;17.73;40.26;99278.59;10348136;28;20304;-69
2023/03/22 10:56:51;;;;;;;3.07;2.40;;;;;;;16.42;41.45;99226.03;10350850;28;20287;-68
2023/03/22 11:06:37;;;;;;;3.83;2.00;;;;;;;14.57;44.63;99304.69;10601337;27;20853;-69
2023/03/22 11:11:59;;;;;;;2.53;2.10;;;;;;;15.72;43.59;99286.94;10564892;28;20220;-68
2023/03/22 11:17:08;;;;;;;2.67;2.30;;;;;;;17.12;41.77;99279.13;10566060;28;20229;-68
2023/03/22 11:22:37;;;;;;;3.17;1.97;;;;;;;15.76;42.88;99217.16;10573752;28;20222;-68
2023/03/22 11:27:50;;;;;;;2.50;2.30;;;;;;;16.42;42.88;99250.31;10564491;28;20231;-68
2023/03/22 11:33:06;;;;;;;2.73;2.20;;;;;;;16.57;42.53;99237.16;10566369;28;20229;-68
2023/03/22 11:38:24;;;;;;;2.37;1.83;;;;;;;16.73;41.50;99234.75;10575639;28;20233;-69
2023/03/22 11:43:39;;;;;;;3.60;3.23;;;;;;;16.21;41.66;99203.94;10562452;28;20229;-69
2023/03/22 11:48:41;;;;;;;2.17;1.90;;;;;;;16.37;41.04;99207.00;10567938;28;20202;-68
2023/03/22 11:53:46;;;;;;;3.00;2.10;;;;;;;16.14;41.63;99195.13;10567576;28;20279;-68
2023/03/22 11:59:05;;;;;;;3.03;2.20;;;;;;;16.12;40.81;99191.03;10568895;28;20352;-69
2023/03/22 12:04:13;;;;;;;2.20;2.00;;;;;;;16.69;40.50;99207.41;10566559;28;20258;-68
2023/03/22 12:09:38;;;;;;;2.13;1.93;;;;;;;16.49;40.26;99198.88;10574897;28;20206;-68
2023/03/22 12:15:01;;;;;;;3.93;2.50;;;;;;;16.85;40.20;99189.59;10552195;28;20229;-69
2023/03/22 12:20:16;;;;;;;2.63;2.03;;;;;;;17.93;39.89;99205.03;10541489;28;20238;-69
2023/03/22 12:25:23;;;;;;;2.60;2.00;;;;;;;16.81;41.10;99169.56;10542186;28;20620;-69
2023/03/22 12:30:39;;;;;;;4.70;2.93;;;;;;;17.53;39.99;99160.03;10538302;28;20212;-69
2023/03/22 12:35:46;;;;;;;3.60;3.00;;;;;;;17.38;39.65;99128.16;10537742;28;20221;-69
2023/03/22 12:40:51;;;;;;;2.93;2.10;;;;;;;17.89;39.76;99156.00;10546886;28;20575;-69
2023/03/22 12:45:57;;;;;;;2.13;2.03;;;;;;;16.92;40.31;99105.69;10535080;28;20724;-69
2023/03/22 12:51:04;;;;;;;2.83;2.43;;;;;;;17.94;39.42;99121.97;10541340;28;20211;-69
2023/03/22 12:56:06;;;;;;;3.20;2.13;;;;;;;17.69;39.57;99078.06;10531771;28;20236;-69
2023/03/22 13:01:25;;;;;;;2.50;2.10;;;;;;;18.12;38.15;99075.66;10534206;28;20221;-69
2023/03/22 13:06:33;;;;;;;2.50;2.30;;;;;;;18.92;38.07;99072.47;10538422;28;20285;-69
2023/03/22 13:11:35;;;;;;;2.17;1.70;;;;;;;17.34;39.66;99011.56;10541491;28;20211;-69
2023/03/22 13:16:49;;;;;;;1.93;1.80;;;;;;;16.94;39.90;99036.03;10544981;28;20230;-69
2023/03/22 13:22:16;;;;;;;2.33;1.63;;;;;;;17.87;38.74;98978.72;10535382;28;20693;-69
2023/03/22 13:27:18;;;;;;;1.70;1.60;;;;;;;16.75;38.20;98951.69;10534306;28;20316;-69
2023/03/22 13:32:28;;;;;;;1.93;1.70;;;;;;;18.67;36.88;98957.34;10535947;28;20217;-69
2023/03/22 13:37:45;;;;;;;2.97;1.60;;;;;;;17.39;36.87;98953.19;10535850;28;20234;-69
2023/03/22 13:42:49;;;;;;;2.10;1.67;;;;;;;18.63;36.71;98978.72;10534836;28;20225;-69
2023/03/22 13:48:28;;;;;;;1.90;1.80;;;;;;;17.85;35.99;98968.16;10538535;28;20229;-68
2023/03/22 13:53:35;;;;;;;2.73;1.50;;;;;;;18.46;35.99;98924.66;10529935;28;20609;-68
2023/03/22 13:58:52;;;;;;;4.30;1.40;;;;;;;18.71;35.20;98947.63;10539524;28;20217;-68
2023/03/22 14:04:00;;;;;;;1.80;1.37;;;;;;;17.09;35.53;98933.59;10531125;28;20243;-68
2023/03/22 14:09:12;;;;;;;1.50;1.40;;;;;;;18.07;34.65;98962.72;10542175;28;20301;-68
2023/03/22 14:14:21;;;;;;;1.63;1.30;;;;;;;18.84;34.77;98928.22;10536303;28;20225;-67
2023/03/22 14:19:26;;;;;;;1.50;1.40;;;;;;;18.54;34.26;98933.38;10536599;28;20209;-67
2023/03/22 14:24:32;;;;;;;1.80;1.70;;;;;;;18.31;35.08;98885.81;10527999;28;20662;-68
2023/03/22 14:29:45;;;;;;;1.70;1.60;;;;;;;17.82;35.96;98965.13;10544699;28;20195;-68
2023/03/22 14:34:49;;;;;;;1.73;1.60;;;;;;;17.57;36.63;98950.19;10528004;28;20238;-70
2023/03/22 14:39:50;;;;;;;1.53;1.33;;;;;;;17.28;36.50;98923.31;10524114;28;20286;-69
2023/03/22 14:44:59;;;;;;;1.70;1.60;;;;;;;18.16;36.36;98937.91;10520731;28;20226;-71
2023/03/22 14:50:08;;;;;;;1.93;1.70;;;;;;;17.65;36.73;98938.97;10520781;28;20293;-71
2023/03/22 14:55:23;;;;;;;3.00;1.60;;;;;;;18.87;35.24;98888.94;10503752;28;20716;-70
2023/03/22 15:00:26;;;;;;;2.33;1.40;;;;;;;18.75;34.96;98888.31;10525557;28;20692;-70
2023/03/22 15:05:34;;;;;;;1.50;1.40;;;;;;;18.47;35.68;98892.97;10525298;28;20721;-70
2023/03/22 15:10:36;;;;;;;1.60;1.50;;;;;;;18.09;35.62;98913.75;10512831;28;20211;-72
2023/03/22 15:15:40;;;;;;;1.97;1.53;;;;;;;17.55;36.08;98917.16;10507979;28;20233;-72
2023/03/22 15:20:45;;;;;;;1.43;1.33;;;;;;;18.26;35.01;98857.56;10524852;28;20843;-70
2023/03/22 15:25:57;;;;;;;3.23;1.80;;;;;;;18.51;35.94;98860.75;10519196;28;20254;-68
2023/03/22 15:31:00;;;;;;;2.07;1.60;;;;;;;18.19;35.19;98903.00;10519910;28;20234;-67
2023/03/22 15:36:02;;;;;;;2.00;1.60;;;;;;;19.00;34.43;98847.03;10512807;28;20222;-69
2023/03/22 15:41:17;;;;;;;2.13;1.80;;;;;;;20.50;34.12;98816.41;10522055;28;20206;-68
2023/03/22 15:46:20;;;;;;;2.03;1.63;;;;;;;18.84;34.59;98833.38;10501835;28;20312;-67
2023/03/22 15:51:28;;;;;;;3.60;1.70;;;;;;;18.98;35.09;98795.78;10500009;28;20286;-66
2023/03/22 15:56:32;;;;;;;1.93;1.83;;;;;;;18.32;35.71;98807.03;10520815;28;20222;-69
2023/03/22 16:01:42;;;;;;;1.90;1.80;;;;;;;18.90;35.47;98817.94;10516158;28;20298;-69
2023/03/22 16:06:43;;;;;;;3.47;1.90;;;;;;;20.05;34.37;98775.41;10526654;28;20219;-69
2023/03/22 16:11:44;;;;;;;2.90;1.80;;;;;;;18.94;35.70;98810.13;10507019;28;20830;-67
2023/03/22 16:16:47;;;;;;;3.23;1.80;;;;;;;20.48;34.40;98781.38;10534777;28;20222;-67
2023/03/22 16:21:47;;;;;;;4.50;2.20;;;;;;;18.86;35.90;98813.28;10523848;28;20584;-67
2023/03/22 16:26:48;;;;;;;2.60;1.80;;;;;;;17.39;36.08;98823.41;10527060;28;20238;-70
2023/03/22 16:31:49;;;;;;;1.70;1.60;;;;;;;18.58;35.80;98858.66;10525157;28;20214;-70
2023/03/22 16:36:49;;;;;;;2.00;1.77;;;;;;;17.25;36.97;98848.13;10511852;28;20641;-68
2023/03/22 16:41:50;;;;;;;2.73;2.23;;;;;;;18.69;36.18;98864.97;10526851;28;20733;-69
2023/03/22 16:46:50;;;;;;;4.00;2.10;;;;;;;17.79;36.72;98852.00;10522612;28;20308;-69
2023/03/22 16:51:51;;;;;;;3.73;1.97;;;;;;;20.00;35.18;98785.47;10524564;28;20210;-70
2023/03/22 16:56:51;;;;;;;12.13;3.27;;;;;;;18.95;36.39;98809.84;10527628;28;20219;-70
2023/03/22 17:01:52;;;;;;;11.97;2.80;;;;;;;17.98;37.59;98855.16;10521587;28;20851;-69
2023/03/22 17:06:53;;;;;;;7.50;2.80;;;;;;;18.83;36.70;98826.31;10520591;28;20637;-70
2023/03/22 17:11:53;;;;;;;9.87;2.63;;;;;;;19.90;35.17;98776.22;10530810;28;20211;-68
2023/03/22 17:16:54;;;;;;;2.97;2.50;;;;;;;18.23;36.45;98822.06;10526647;28;20884;-70
2023/03/22 17:21:55;;;;;;;3.13;2.60;;;;;;;17.48;37.14;98841.63;10520026;28;20217;-70
2023/03/22 17:26:55;;;;;;;4.70;2.20;;;;;;;17.09;37.21;98878.72;10521717;28;20242;-70
2023/03/22 17:31:59;;;;;;;4.20;2.33;;;;;;;17.39;37.12;98899.13;10508108;28;20285;-69
2023/03/22 17:36:59;;;;;;;3.13;2.40;;;;;;;17.26;37.10;98922.75;10525428;28;20234;-69
2023/03/22 17:42:01;;;;;;;4.83;2.67;;;;;;;17.80;36.83;98896.91;10507551;28;20221;-69
2023/03/22 17:47:01;;;;;;;2.70;2.30;;;;;;;16.96;37.35;98923.94;10525128;28;20398;-70
2023/03/22 17:52:02;;;;;;;2.50;2.30;;;;;;;16.33;37.55;98895.38;10517255;28;20203;-69
2023/03/22 17:57:02;;;;;;;2.67;2.47;;;;;;;16.30;38.21;98912.88;10521159;28;20222;-70
2023/03/22 18:02:03;;;;;;;3.47;2.87;;;;;;;17.58;37.17;98886.09;10526433;28;20394;-69
2023/03/22 18:07:04;;;;;;;4.37;3.20;;;;;;;18.45;36.54;98870.75;10526858;28;20287;-67
2023/03/22 18:12:05;;;;;;;3.20;2.60;;;;;;;18.68;36.28;98856.03;10526280;28;20206;-67
2023/03/22 18:17:06;;;;;;;3.20;2.90;;;;;;;19.36;35.95;98856.13;10516674;28;20309;-69
2023/03/22 18:22:06;;;;;;;3.93;2.93;;;;;;;18.48;36.84;98840.44;10507193;28;20214;-70
2023/03/22 18:27:07;;;;;;;3.93;2.80;;;;;;;18.80;36.79;98829.53;10505104;28;20225;-69
2023/03/22 18:32:07;;;;;;;4.07;3.20;;;;;;;19.08;36.46;98881.78;10524779;28;20590;-70
2023/03/22 18:37:08;;;;;;;6.90;3.90;;;;;;;18.01;37.03;98869.00;10526332;28;20238;-67
2023/03/22 18:42:09;;;;;;;3.93;3.17;;;;;;;17.80;37.66;98905.03;10521322;28;20210;-69
2023/03/22 18:47:15;;;;;;;5.47;3.10;;;;;;;17.77;37.50;98887.44;10521592;28;20241;-68
2023/03/22 18:52:15;;;;;;;3.57;2.80;;;;;;;17.51;38.07;98926.84;10523724;28;20234;-69
2023/03/22 18:57:16;;;;;;;3.80;2.50;;;;;;;17.78;37.40;98877.41;10521420;28;20328;-66
2023/03/22 19:02:17;;;;;;;4.10;2.80;;;;;;;16.93;38.11;98896.56;10525909;28;20231;-67
2023/03/22 19:07:18;;;;;;;5.80;3.70;;;;;;;17.85;37.16;98883.44;10514495;28;20230;-69
2023/03/22 19:12:18;;;;;;;5.93;3.93;;;;;;;17.23;37.73;98893.50;10521295;28;20314;-68
2023/03/22 19:17:19;;;;;;;5.60;3.80;;;;;;;17.41;37.83;98916.75;10519214;28;20681;-70
2023/03/22 19:22:20;;;;;;;5.53;3.47;;;;;;;16.75;38.03;98876.03;10515231;28;20218;-73
2023/03/22 19:27:21;;;;;;;5.47;3.90;;;;;;;18.12;36.74;98860.97;10498721;28;20234;-76
2023/03/22 19:32:21;;;;;;;4.50;3.20;;;;;;;17.61;37.13;98886.38;10507050;28;21366;-74
2023/03/22 19:37:22;;;;;;;7.00;5.13;;;;;;;18.41;36.70;98894.81;10520409;28;20651;-70
2023/03/22 19:42:23;;;;;;;7.43;3.93;;;;;;;17.81;37.17;98928.31;10522089;28;20203;-73
2023/03/22 19:47:24;;;;;;;5.90;3.87;;;;;;;17.20;36.98;98899.41;10516651;28;20226;-70
2023/03/22 19:52:24;;;;;;;6.57;4.23;;;;;;;17.78;36.51;98913.41;10504933;28;20678;-70
2023/03/22 19:57:28;;;;;;;7.63;3.87;;;;;;;17.50;36.51;98917.13;10518845;28;20226;-69
2023/03/22 20:02:29;;;;;;;5.70;4.10;;;;;;;17.61;36.89;98945.09;10525785;28;20301;-71
2023/03/22 20:07:29;;;;;;;8.77;4.03;;;;;;;17.12;36.53;98924.16;10501666;28;20945;-68
2023/03/22 20:12:31;;;;;;;5.83;2.80;;;;;;;15.92;38.11;98943.19;10525351;28;20225;-68
2023/03/22 20:17:37;;;;;;;4.17;2.83;;;;;;;15.28;38.71;98942.13;10521439;28;20689;-66
2023/03/22 20:22:39;;;;;;;2.87;2.17;;;;;;;15.77;38.39;98987.66;10514506;28;20238;-71
2023/03/22 20:27:39;;;;;;;2.70;2.30;;;;;;;15.94;37.99;98979.63;10518811;28;20846;-71
2023/03/22 20:32:40;;;;;;;2.30;1.93;;;;;;;15.61;42.22;98988.41;10513274;28;20205;-71
2023/03/22 20:37:41;;;;;;;2.50;2.10;;;;;;;15.51;42.67;98957.44;10518060;28;20230;-71
2023/03/22 20:42:41;;;;;;;4.23;2.20;;;;;;;16.89;41.27;98917.88;10517626;28;20230;-69
2023/03/22 20:47:42;;;;;;;2.70;2.30;;;;;;;16.16;41.48;98923.16;10514554;28;20356;-66
2023/03/22 20:52:42;;;;;;;2.57;2.10;;;;;;;16.78;41.26;98926.88;10520881;28;20267;-68
2023/03/22 20:57:46;;;;;;;1.93;1.83;;;;;;;16.76;41.55;98951.44;10511997;28;20245;-66
2023/03/22 21:02:47;;;;;;;2.00;1.80;;;;;;;16.90;41.34;98951.91;10522937;28;20248;-71
2023/03/22 21:07:48;;;;;;;2.20;1.90;;;;;;;18.13;39.72;98889.69;10520511;28;20241;-71
2023/03/22 21:12:48;;;;;;;2.23;2.03;;;;;;;16.92;40.78;98917.38;10520268;28;20902;-69
2023/03/22 21:17:49;;;;;;;2.80;2.27;;;;;;;17.42;40.79;98939.19;10520475;28;20230;-70
2023/03/22 21:22:49;;;;;;;3.83;2.00;;;;;;;14.97;44.01;98943.31;10502834;28;20292;-69
2023/03/22 21:27:52;;;;;;;2.50;2.20;;;;;;;15.63;43.71;98994.41;10524481;28;20718;-71
2023/03/22 21:32:53;;;;;;;3.20;2.27;;;;;;;13.73;45.38;98906.19;10495033;28;20234;-73
2023/03/22 21:37:56;;;;;;;3.13;2.53;;;;;;;15.16;43.38;98997.09;10517661;28;20230;-71
2023/03/22 21:42:57;;;;;;;2.57;1.80;;;;;;;16.18;42.03;98958.81;10499518;28;20910;-73
2023/03/22 21:47:57;;;;;;;2.37;2.17;;;;;;;16.03;41.81;98950.41;10523420;28;20214;-70
2023/03/22 21:52:58;;;;;;;2.00;1.77;;;;;;;13.97;43.66;98950.13;10520016;28;20209;-70
2023/03/22 21:57:59;;;;;;;1.90;1.80;;;;;;;13.83;43.62;98985.28;10516253;28;20234;-70
2023/03/22 22:03:00;;;;;;;3.73;2.00;;;;;;;13.64;43.26;98960.28;10522115;28;20230;-70
2023/03/22 22:08:01;;;;;;;2.60;2.10;;;;;;;14.27;43.33;99020.13;10505720;28;20277;-70
2023/03/22 22:13:01;;;;;;;2.33;2.00;;;;;;;14.73;43.03;99005.22;10518154;28;20206;-70
2023/03/22 22:18:05;;;;;;;4.00;2.10;;;;;;;14.87;43.10;99007.72;10519284;28;20641;-70
2023/03/22 22:23:06;;;;;;;2.27;2.00;;;;;;;13.97;42.95;98999.41;10505366;28;20254;-70
2023/03/22 22:28:07;;;;;;;2.23;2.00;;;;;;;14.22;42.91;99003.84;10522880;28;20724;-70
2023/03/22 22:33:08;;;;;;;2.37;2.17;;;;;;;14.83;42.81;99030.75;10513408;28;20275;-70
2023/03/22 22:38:09;;;;;;;2.13;2.00;;;;;;;14.35;44.04;99035.97;10503101;28;21002;-70
2023/03/22 22:43:10;;;;;;;1.90;1.80;;;;;;;14.54;44.09;99020.63;10513372;28;20229;-70
2023/03/22 22:48:11;;;;;;;1.57;1.47;;;;;;;14.32;43.60;99027.53;10520967;28;20226;-70
2023/03/22 22:53:11;;;;;;;2.00;1.83;;;;;;;14.49;43.63;99016.94;10506234;28;20198;-70
2023/03/22 22:58:12;;;;;;;3.57;1.57;;;;;;;15.21;42.56;98984.53;10497743;28;20713;-70
2023/03/22 23:03:12;;;;;;;1.60;1.30;;;;;;;14.64;42.88;99006.56;10519048;28;20239;-70
2023/03/22 23:08:13;;;;;;;2.23;2.03;;;;;;;14.89;41.97;99002.91;10505480;28;20258;-70
2023/03/22 23:13:13;;;;;;;1.63;1.53;;;;;;;15.32;41.92;98977.53;10487513;28;20203;-70
2023/03/22 23:18:15;;;;;;;1.53;1.43;;;;;;;15.05;42.78;98985.22;10509942;28;20234;-70
2023/03/22 23:23:19;;;;;;;2.00;1.90;;;;;;;14.23;43.94;99037.78;10520283;28;20256;-70
2023/03/22 23:28:20;;;;;;;1.60;1.50;;;;;;;15.88;41.47;98965.25;10517014;28;20238;-70
2023/03/22 23:33:20;;;;;;;2.70;1.63;;;;;;;16.13;41.38;98964.09;10508966;28;20635;-70
2023/03/22 23:38:21;;;;;;;1.67;1.57;;;;;;;13.92;44.10;99007.31;10500507;28;20231;-70
2023/03/22 23:43:21;;;;;;;2.03;1.83;;;;;;;14.48;43.03;98988.41;10521289;28;20281;-70